Track Алексей Савкин

Time Latitude Longitude Accuracy (66% radius in meters) Altitude (meters) Speed (km/hour) Bearing (degrees) Battery (%) GPS flag
10:19:18 44.637212 39.185794 6 123 0 0 85 1 delete
10:19:10 44.637171 39.185781 5 124 0 0 85 1 delete
10:19:08 44.637140 39.185776 6 124 0.75 322.29998779297 85 1 delete
10:18:57 44.637084 39.185798 10 124 0.75 322.29998779297 85 1 delete
10:18:56 44.637077 39.185808 9 124 1 325.70001220703 85 1 delete
10:18:47 44.636988 39.185871 10 123 1 14.300000190735 85 1 delete
10:18:40 44.636890 39.185878 9 125 1.25 351 85 1 delete
10:18:36 44.636832 39.185903 10 129 1 329.5 85 1 delete
10:18:33 44.636799 39.185938 10 131 1 306.89999389648 85 1 delete
10:18:26 44.636775 39.186051 11 130 0.25 278 85 1 delete
10:18:16 44.636796 39.186044 10 130 0 0 85 1 delete
10:18:11 44.636785 39.186069 10 133 1 263.70001220703 85 1 delete
10:18:05 44.636791 39.186132 10 131 1 277 85 1 delete
10:18:01 44.636789 39.186201 10 128 1.25 267.60000610352 85 1 delete
10:17:55 44.636810 39.186324 10 128 1 240.60000610352 85 1 delete
10:17:54 44.636818 39.186343 10 125 1 245.19999694824 85 1 delete
10:17:47 44.636849 39.186463 10 123 1 265.89999389648 85 1 delete
10:17:44 44.636864 39.186516 10 126 1 269.60000610352 85 1 delete
10:17:40 44.636879 39.186597 10 124 0.75 257.10000610352 85 1 delete
10:17:33 44.636888 39.186643 10 127 0.75 290.29998779297 85 1 delete
10:17:26 44.636887 39.186728 10 125 0.5 309.5 85 1 delete
10:17:23 44.636874 39.186741 9 127 0.5 309.5 85 1 delete
10:17:13 44.636829 39.186829 10 126 1 330.29998779297 85 1 delete
10:17:12 44.636818 39.186840 10 125 1 338.39999389648 85 1 delete
10:17:05 44.636751 39.186919 5 127 1 309.5 85 1 delete
10:17:02 44.636729 39.186961 5 128 1 317.29998779297 85 1 delete
10:16:50 44.636703 39.187013 4 128 0 0 85 1 delete
10:16:48 44.636698 39.187034 4 126 1 313.10000610352 85 1 delete
10:16:41 44.636609 39.187085 5 128 1 347.89999389648 85 1 delete
10:16:39 44.636583 39.187095 5 128 1 350.10000610352 85 1 delete
10:16:33 44.636526 39.187140 5 127 0.75 351.89999389648 85 1 delete
10:16:27 44.636462 39.187185 4 128 0.75 342.39999389648 85 1 delete
10:16:25 44.636448 39.187206 4 129 0.75 306.20001220703 85 1 delete
10:16:18 44.636385 39.187302 4 129 0.75 335.60000610352 85 1 delete
10:16:17 44.636370 39.187315 5 129 0.75 336.29998779297 85 1 delete
10:15:57 44.636314 39.187370 12 130 0 0 85 1 delete
10:15:49 44.636314 39.187390 10 129 0 0 85 1 delete
10:15:34 44.636243 39.187472 11 128 0 0 85 1 delete
10:15:21 44.636153 39.187461 10 127 1 0.5 85 1 delete
10:15:12 44.636096 39.187567 11 126 1 303.79998779297 85 1 delete
10:15:00 44.636037 39.187664 12 126 1.25 328.79998779297 85 1 delete
10:14:33 44.635984 39.187807 12 122 0 0 85 1 delete
10:14:17 44.635984 39.187807 11 122 0 0 85 1 delete
10:13:58 44.635984 39.187808 14 122 0 0 85 1 delete
10:13:46 44.635984 39.187808 14 123 0 0 85 1 delete
10:13:35 44.635984 39.187808 14 122 0 0 85 1 delete
10:13:06 44.635977 39.187802 10 119 0 0 85 1 delete
10:13:00 44.635949 39.187733 10 118 1.25 82.099998474121 85 1 delete
10:12:54 44.635893 39.187625 10 122 1.25 40.900001525879 85 1 delete
10:12:47 44.635829 39.187528 10 126 0.5 74.099998474121 85 1 delete